Time;durP1;ratioP1;P1;durP2;ratioP2;P2;SDS_P1;SDS_P2;PMS_P1;PMS_P2;Temp;Humidity;BMP_temperature;BMP_pressure;BME280_temperature;BME280_humidity;BME280_pressure;Samples;Min_cycle;Max_cycle;Signal;HPM_P1;HPM_P2
2022/01/29 00:00:19;;;;;;;1.85;1.48;;;4.40;99.90;;;;;;4442642;32;20135;-70
2022/01/29 00:02:45;;;;;;;16.17;1.02;;;4.40;99.90;;;;;;4443031;32;20088;-69
2022/01/29 00:05:11;;;;;;;2.90;1.45;;;4.40;99.90;;;;;;4442999;32;20081;-69
2022/01/29 00:07:41;;;;;;;1.50;1.35;;;4.40;99.90;;;;;;4441948;32;20069;-69
2022/01/29 00:10:07;;;;;;;1.63;1.30;;;4.40;99.90;;;;;;4443874;32;20069;-68
2022/01/29 00:12:33;;;;;;;0.52;0.52;;;4.50;99.90;;;;;;4443836;32;20080;-70
2022/01/29 00:14:58;;;;;;;2.58;1.48;;;4.20;99.90;;;;;;4442874;32;20086;-69
2022/01/29 00:17:24;;;;;;;2.10;0.93;;;4.20;99.90;;;;;;4444387;32;20172;-70
2022/01/29 00:19:49;;;;;;;0.40;0.40;;;4.20;99.90;;;;;;4443222;32;20069;-69
2022/01/29 00:22:15;;;;;;;0.98;0.98;;;4.20;99.90;;;;;;4443632;32;20073;-70
2022/01/29 00:24:40;;;;;;;18.15;1.35;;;4.20;99.90;;;;;;4441011;32;20484;-70
2022/01/29 00:27:09;;;;;;;6.32;2.45;;;4.20;99.90;;;;;;4440511;32;20081;-70
2022/01/29 00:29:39;;;;;;;3.03;1.02;;;4.10;99.90;;;;;;4441548;32;20077;-70
2022/01/29 00:32:06;;;;;;;0.65;0.65;;;4.10;99.90;;;;;;4441976;32;20073;-70
2022/01/29 00:34:32;;;;;;;0.30;0.30;;;4.10;99.90;;;;;;4439944;32;20098;-70
2022/01/29 00:36:58;;;;;;;0.52;0.52;;;4.00;99.90;;;;;;4440961;32;20189;-70
2022/01/29 00:39:23;;;;;;;2.42;1.12;;;4.10;99.90;;;;;;4438710;32;20905;-70
2022/01/29 00:41:49;;;;;;;1.35;0.98;;;4.10;99.90;;;;;;4440851;32;20065;-70
2022/01/29 00:44:14;;;;;;;3.12;0.82;;;4.10;99.90;;;;;;4440949;32;20074;-69
2022/01/29 00:46:41;;;;;;;0.52;0.52;;;4.20;99.90;;;;;;4442432;32;20072;-69
2022/01/29 00:49:08;;;;;;;0.60;0.60;;;4.10;99.90;;;;;;4441373;32;20077;-69
2022/01/29 00:51:34;;;;;;;4.37;2.05;;;4.10;99.90;;;;;;4441510;32;20073;-70
2022/01/29 00:54:00;;;;;;;0.40;0.40;;;4.10;99.90;;;;;;4438871;32;20105;-70
2022/01/29 00:56:25;;;;;;;6.07;1.77;;;4.20;99.90;;;;;;4442559;32;20102;-70
2022/01/29 00:58:50;;;;;;;2.20;0.75;;;4.20;99.90;;;;;;4441573;32;20073;-71
2022/01/29 01:01:16;;;;;;;0.98;0.95;;;4.20;99.90;;;;;;4441199;32;20117;-70
2022/01/29 01:03:41;;;;;;;0.70;0.65;;;4.20;99.90;;;;;;4441316;32;20097;-69
2022/01/29 01:06:07;;;;;;;0.62;0.62;;;4.20;99.90;;;;;;4441864;32;20112;-70
2022/01/29 01:08:32;;;;;;;0.43;0.43;;;4.20;99.90;;;;;;4438863;32;20088;-70
2022/01/29 01:10:58;;;;;;;13.45;1.45;;;4.30;99.90;;;;;;4441609;32;20077;-70
2022/01/29 01:13:24;;;;;;;0.50;0.50;;;4.30;99.90;;;;;;4441816;32;20124;-70
2022/01/29 01:15:49;;;;;;;0.55;0.55;;;4.30;99.90;;;;;;4442253;32;20064;-70
2022/01/29 01:18:15;;;;;;;0.50;0.50;;;4.20;99.90;;;;;;4443937;32;20057;-69
2022/01/29 01:20:40;;;;;;;0.60;0.60;;;4.20;99.90;;;;;;4443909;32;20069;-70
2022/01/29 01:23:06;;;;;;;5.78;2.10;;;4.10;99.90;;;;;;4438290;32;20058;-69
2022/01/29 01:25:31;;;;;;;1.30;1.02;;;4.10;99.90;;;;;;4442014;32;20065;-69
2022/01/29 01:27:57;;;;;;;0.75;0.75;;;4.20;99.90;;;;;;4442698;32;20153;-69
2022/01/29 01:30:23;;;;;;;1.55;1.20;;;4.20;99.90;;;;;;4441401;32;20138;-69
2022/01/29 01:32:49;;;;;;;12.15;0.73;;;4.20;99.90;;;;;;4441218;32;20077;-69
2022/01/29 01:35:21;;;;;;;0.75;0.75;;;4.20;99.90;;;;;;4440277;32;20089;-69
2022/01/29 01:37:57;;;;;;;1.30;1.20;;;4.30;99.90;;;;;;4441572;32;20625;-69
2022/01/29 01:40:24;;;;;;;0.57;0.35;;;4.30;99.90;;;;;;4440078;32;20529;-69
2022/01/29 01:42:51;;;;;;;4.85;1.75;;;4.30;99.90;;;;;;4440891;32;20061;-70
2022/01/29 01:45:17;;;;;;;0.35;0.35;;;4.30;99.90;;;;;;4439982;32;20438;-69
2022/01/29 01:47:42;;;;;;;5.82;2.05;;;4.30;99.90;;;;;;4441705;32;20072;-69
2022/01/29 01:50:09;;;;;;;1.25;1.15;;;4.30;99.90;;;;;;4441397;32;20215;-69
2022/01/29 01:52:34;;;;;;;1.95;1.05;;;4.20;99.90;;;;;;4440727;32;20065;-69
2022/01/29 01:55:00;;;;;;;1.08;0.93;;;4.30;99.90;;;;;;4441265;32;20085;-69
2022/01/29 01:57:25;;;;;;;2.55;1.15;;;4.30;99.90;;;;;;4441815;32;20137;-69
2022/01/29 01:59:51;;;;;;;2.72;1.12;;;4.20;99.90;;;;;;4441878;32;20077;-69
2022/01/29 02:02:16;;;;;;;1.35;1.02;;;4.30;99.90;;;;;;4442147;32;20076;-69
2022/01/29 02:04:42;;;;;;;1.08;0.93;;;4.30;99.90;;;;;;4442691;32;20084;-69
2022/01/29 02:07:08;;;;;;;2.65;1.60;;;4.30;99.90;;;;;;4441600;32;21351;-69
2022/01/29 02:09:34;;;;;;;0.40;0.40;;;4.20;99.90;;;;;;4439241;32;20097;-71
2022/01/29 02:12:02;;;;;;;0.82;0.82;;;4.20;99.90;;;;;;4441745;32;20085;-69
2022/01/29 02:14:31;;;;;;;0.88;0.82;;;4.20;99.90;;;;;;4439753;32;20141;-69
2022/01/29 02:16:58;;;;;;;0.60;0.60;;;4.10;99.90;;;;;;4440889;32;20077;-69
2022/01/29 02:19:25;;;;;;;0.60;0.60;;;4.20;99.90;;;;;;4438891;32;20085;-70
2022/01/29 02:21:51;;;;;;;0.45;0.45;;;4.10;99.90;;;;;;4441720;32;20136;-69
2022/01/29 02:24:16;;;;;;;4.10;0.98;;;4.10;99.90;;;;;;4440100;32;20113;-69
2022/01/29 02:26:42;;;;;;;1.20;1.08;;;4.10;99.90;;;;;;4439568;32;20128;-70
2022/01/29 02:29:08;;;;;;;1.00;0.85;;;4.10;99.90;;;;;;4440805;32;20113;-70
2022/01/29 02:31:33;;;;;;;0.40;0.40;;;4.10;99.90;;;;;;4440588;32;20078;-69
2022/01/29 02:33:59;;;;;;;0.30;0.30;;;4.20;99.90;;;;;;4442333;32;20117;-70
2022/01/29 02:36:25;;;;;;;1.52;1.00;;;4.20;99.90;;;;;;4441696;32;20541;-69
2022/01/29 02:38:50;;;;;;;0.60;0.60;;;3.90;99.90;;;;;;4441205;32;20449;-69
2022/01/29 02:41:16;;;;;;;8.20;2.15;;;3.90;99.90;;;;;;4439804;32;20071;-70
2022/01/29 02:43:46;;;;;;;0.40;0.40;;;4.00;99.90;;;;;;4442740;32;20088;-69
2022/01/29 02:46:29;;;;;;;0.88;0.88;;;4.00;99.90;;;;;;4439206;32;20430;-70
2022/01/29 02:48:57;;;;;;;0.50;0.50;;;4.10;99.90;;;;;;4440528;32;20092;-70
2022/01/29 02:51:23;;;;;;;6.00;0.80;;;4.10;99.90;;;;;;4441961;32;20123;-70
2022/01/29 02:53:48;;;;;;;0.57;0.57;;;4.10;99.90;;;;;;4443095;32;20069;-70
2022/01/29 02:56:14;;;;;;;0.40;0.40;;;4.10;99.90;;;;;;4442626;32;20131;-70
2022/01/29 02:58:40;;;;;;;0.40;0.40;;;4.10;99.90;;;;;;4442482;32;20076;-70
2022/01/29 03:01:07;;;;;;;0.70;0.70;;;4.10;99.90;;;;;;4443050;32;21695;-70
2022/01/29 03:03:32;;;;;;;1.60;1.12;;;4.10;99.90;;;;;;4443270;32;20176;-70
2022/01/29 03:05:58;;;;;;;3.50;0.88;;;4.10;99.90;;;;;;4442514;32;20089;-70
2022/01/29 03:08:23;;;;;;;0.30;0.30;;;3.90;99.90;;;;;;4440333;32;20422;-70
2022/01/29 03:10:49;;;;;;;2.30;1.55;;;4.00;99.90;;;;;;4444176;32;20089;-70
2022/01/29 03:13:16;;;;;;;1.25;1.17;;;4.00;99.90;;;;;;4443026;32;20084;-70
2022/01/29 03:15:41;;;;;;;0.40;0.40;;;4.10;99.90;;;;;;4444256;32;20088;-69
2022/01/29 03:18:07;;;;;;;0.88;0.77;;;4.10;99.90;;;;;;4444373;32;20517;-69
2022/01/29 03:20:32;;;;;;;47.65;1.62;;;4.00;99.90;;;;;;4444329;32;20190;-69
2022/01/29 03:22:59;;;;;;;0.40;0.40;;;4.00;99.90;;;;;;4441928;32;20093;-69
2022/01/29 03:25:24;;;;;;;0.50;0.50;;;3.90;99.90;;;;;;4444447;32;20080;-69
2022/01/29 03:27:50;;;;;;;1.95;1.30;;;3.90;99.90;;;;;;4443416;32;20097;-69
2022/01/29 03:30:15;;;;;;;1.35;0.65;;;3.90;99.90;;;;;;4441129;32;20085;-69
2022/01/29 03:32:41;;;;;;;1.23;1.08;;;3.90;99.90;;;;;;4442460;32;20581;-70
2022/01/29 03:35:07;;;;;;;5.85;1.52;;;3.90;99.90;;;;;;4443973;32;20072;-70
2022/01/29 03:37:33;;;;;;;0.50;0.50;;;4.00;99.90;;;;;;4444152;32;20064;-70
2022/01/29 03:40:02;;;;;;;0.45;0.45;;;4.10;99.90;;;;;;4441419;32;20073;-69
2022/01/29 03:42:30;;;;;;;1.17;0.70;;;4.10;99.90;;;;;;4443437;32;20101;-69
2022/01/29 03:44:57;;;;;;;6.03;2.35;;;4.00;99.90;;;;;;4440029;32;20366;-69
2022/01/29 03:47:23;;;;;;;0.40;0.40;;;3.90;99.90;;;;;;4443591;32;20092;-69
2022/01/29 03:49:49;;;;;;;3.20;1.20;;;3.90;99.90;;;;;;4442649;32;20273;-69
2022/01/29 03:52:14;;;;;;;11.05;1.10;;;3.90;99.90;;;;;;4442157;32;20069;-70
2022/01/29 03:54:40;;;;;;;3.70;2.15;;;3.90;99.90;;;;;;4442276;32;20121;-70
2022/01/29 03:57:05;;;;;;;0.60;0.60;;;3.90;99.90;;;;;;4442475;32;20068;-70
2022/01/29 03:59:31;;;;;;;0.30;0.30;;;3.80;99.90;;;;;;4441343;32;20470;-70
2022/01/29 04:01:56;;;;;;;0.50;0.50;;;3.80;99.90;;;;;;4443335;32;20482;-69
2022/01/29 04:04:21;;;;;;;3.47;0.55;;;3.80;99.90;;;;;;4443850;32;20151;-70
2022/01/29 04:06:49;;;;;;;1.02;0.75;;;3.70;99.90;;;;;;4442180;32;20109;-69
2022/01/29 04:09:14;;;;;;;1.23;1.12;;;3.80;99.90;;;;;;4442101;32;20513;-69
2022/01/29 04:11:40;;;;;;;3.30;1.33;;;3.90;99.90;;;;;;4442915;32;20089;-70
2022/01/29 04:14:15;;;;;;;0.55;0.55;;;3.90;99.90;;;;;;4443537;32;20109;-70
2022/01/29 04:16:40;;;;;;;0.95;0.62;;;3.90;99.90;;;;;;4444043;32;20061;-69
2022/01/29 04:19:06;;;;;;;0.50;0.50;;;3.90;99.90;;;;;;4442149;32;20420;-70
2022/01/29 04:21:32;;;;;;;0.50;0.50;;;3.90;99.90;;;;;;4442449;32;20085;-70
2022/01/29 04:23:57;;;;;;;3.42;1.73;;;3.90;99.90;;;;;;4440191;32;20104;-69
2022/01/29 04:26:22;;;;;;;0.50;0.50;;;3.80;99.90;;;;;;4441871;32;20123;-69
2022/01/29 04:28:49;;;;;;;5.37;1.00;;;3.80;99.90;;;;;;4441712;32;20081;-69
2022/01/29 04:31:18;;;;;;;0.60;0.60;;;3.90;99.90;;;;;;4439589;32;20085;-70
2022/01/29 04:33:45;;;;;;;1.27;0.98;;;3.90;99.90;;;;;;4439837;32;142877;-70
2022/01/29 04:36:10;;;;;;;2.03;0.82;;;4.00;99.90;;;;;;4442626;32;20089;-70
2022/01/29 04:38:36;;;;;;;0.60;0.60;;;4.00;99.90;;;;;;4438682;32;20469;-70
2022/01/29 04:41:04;;;;;;;1.45;0.93;;;3.90;99.90;;;;;;4441062;32;20093;-70
2022/01/29 04:43:31;;;;;;;0.82;0.82;;;4.00;99.90;;;;;;4440549;32;20603;-70
2022/01/29 04:45:57;;;;;;;7.78;1.08;;;4.00;99.90;;;;;;4442561;32;20506;-70
2022/01/29 04:48:22;;;;;;;0.40;0.40;;;4.00;99.90;;;;;;4444340;32;20050;-70
2022/01/29 04:50:48;;;;;;;1.27;0.95;;;4.00;99.90;;;;;;4442720;32;20077;-70
2022/01/29 04:53:13;;;;;;;0.40;0.40;;;4.00;99.90;;;;;;4440389;32;20076;-70
2022/01/29 04:55:39;;;;;;;2.40;1.30;;;4.00;99.90;;;;;;4439837;32;20080;-70
2022/01/29 04:58:04;;;;;;;0.65;0.65;;;4.00;99.90;;;;;;4441438;32;20096;-69
2022/01/29 05:00:31;;;;;;;2.83;1.08;;;4.00;99.90;;;;;;4439510;32;20082;-70
2022/01/29 05:03:06;;;;;;;4.37;1.45;;;3.90;99.90;;;;;;4442410;32;20128;-70
2022/01/29 05:05:31;;;;;;;0.40;0.40;;;4.00;99.90;;;;;;4440614;32;20512;-70
2022/01/29 05:07:57;;;;;;;1.27;0.62;;;4.00;99.90;;;;;;4441189;32;20093;-70
2022/01/29 05:10:22;;;;;;;0.70;0.70;;;3.90;99.90;;;;;;4441754;32;20077;-70
2022/01/29 05:12:54;;;;;;;0.98;0.88;;;3.80;99.90;;;;;;4443092;32;20081;-70
2022/01/29 05:15:29;;;;;;;0.82;0.82;;;3.90;99.90;;;;;;4440934;32;20123;-70
2022/01/29 05:26:50;;;;;;;11.40;1.30;;;3.90;99.90;;;;;;4441245;32;20128;-70
2022/01/29 05:27:11;;;;;;;1.52;1.30;;;3.90;99.90;;;;;;4440421;32;20446;-70
2022/01/29 05:28:57;;;;;;;0.50;0.50;;;4.00;99.90;;;;;;4436592;32;20093;-70
2022/01/29 05:31:22;;;;;;;0.52;0.52;;;4.00;99.90;;;;;;4442708;32;20509;-70
2022/01/29 05:33:47;;;;;;;5.32;1.45;;;4.00;99.90;;;;;;4440969;32;20160;-70
2022/01/29 05:36:13;;;;;;;0.98;0.95;;;4.00;99.90;;;;;;4441739;32;20065;-69
2022/01/29 05:38:39;;;;;;;0.40;0.40;;;4.00;99.90;;;;;;4442050;32;20081;-69
2022/01/29 05:41:05;;;;;;;0.57;0.37;;;4.10;99.90;;;;;;4441160;32;20061;-69
2022/01/29 05:43:31;;;;;;;2.53;0.95;;;4.10;99.90;;;;;;4443480;32;20068;-69
2022/01/29 05:45:57;;;;;;;0.57;0.57;;;4.00;99.90;;;;;;4439883;32;20528;-69
2022/01/29 05:48:22;;;;;;;4.95;0.43;;;4.00;99.90;;;;;;4442730;32;20107;-69
2022/01/29 05:50:48;;;;;;;0.52;0.52;;;4.10;99.90;;;;;;4442052;32;20147;-70
2022/01/29 05:53:13;;;;;;;0.75;0.50;;;4.10;99.90;;;;;;4441468;32;20096;-69
2022/01/29 05:55:39;;;;;;;0.70;0.60;;;4.10;99.90;;;;;;4441156;32;20604;-69
2022/01/29 05:58:05;;;;;;;4.53;1.25;;;4.10;99.90;;;;;;4442611;32;20123;-70
2022/01/29 06:00:30;;;;;;;0.50;0.50;;;4.00;99.90;;;;;;4440744;32;20694;-70
2022/01/29 06:03:06;;;;;;;15.27;2.35;;;4.10;99.90;;;;;;4442741;32;20065;-69
2022/01/29 06:05:32;;;;;;;1.30;1.20;;;4.10;99.90;;;;;;4440229;32;20061;-69
2022/01/29 06:07:57;;;;;;;0.47;0.47;;;4.10;99.90;;;;;;4440559;32;20068;-69
2022/01/29 06:10:24;;;;;;;0.80;0.80;;;4.20;99.90;;;;;;4440099;32;20085;-69
2022/01/29 06:13:01;;;;;;;0.50;0.50;;;4.20;99.90;;;;;;4441031;32;20206;-69
2022/01/29 06:15:27;;;;;;;5.07;1.20;;;4.20;99.90;;;;;;4440010;32;20431;-70
2022/01/29 06:17:52;;;;;;;0.50;0.50;;;4.20;99.90;;;;;;4438287;32;20062;-70
2022/01/29 06:20:18;;;;;;;1.27;1.17;;;4.10;99.90;;;;;;4440767;32;20520;-70
2022/01/29 06:22:43;;;;;;;0.52;0.52;;;4.10;99.90;;;;;;4439220;32;20100;-71
2022/01/29 06:25:09;;;;;;;1.17;1.08;;;4.10;99.90;;;;;;4440989;32;20069;-70
2022/01/29 06:27:35;;;;;;;2.42;0.80;;;4.10;99.90;;;;;;4439899;32;20061;-70
2022/01/29 06:30:00;;;;;;;1.77;0.88;;;4.20;99.90;;;;;;4441058;32;20593;-70
2022/01/29 06:32:26;;;;;;;1.25;0.80;;;4.20;99.90;;;;;;4440786;32;20085;-70
2022/01/29 06:34:51;;;;;;;0.50;0.50;;;4.20;99.90;;;;;;4440273;32;20143;-69
2022/01/29 06:37:17;;;;;;;2.35;0.90;;;4.20;99.90;;;;;;4441260;32;20600;-69
2022/01/29 06:39:43;;;;;;;1.08;0.90;;;4.20;99.90;;;;;;4440948;32;20077;-69
2022/01/29 06:42:08;;;;;;;0.43;0.43;;;4.20;99.90;;;;;;4441421;32;20076;-70
2022/01/29 06:44:34;;;;;;;0.65;0.65;;;4.20;99.90;;;;;;4440393;32;20122;-70
2022/01/29 06:46:59;;;;;;;1.15;1.08;;;4.20;99.90;;;;;;4436826;32;20430;-68
2022/01/29 06:49:25;;;;;;;0.70;0.65;;;4.20;99.90;;;;;;4438926;32;20088;-69
2022/01/29 06:51:53;;;;;;;1.67;1.15;;;4.10;99.90;;;;;;4441096;32;20064;-69
2022/01/29 06:54:18;;;;;;;0.50;0.50;;;4.20;99.90;;;;;;4439837;32;20073;-70
2022/01/29 06:56:44;;;;;;;0.30;0.30;;;4.10;99.90;;;;;;4440599;32;20127;-69
2022/01/29 06:59:09;;;;;;;3.97;1.95;;;4.10;99.90;;;;;;4439014;32;20144;-69
2022/01/29 07:01:34;;;;;;;0.40;0.40;;;4.10;99.90;;;;;;4439745;32;20064;-69
2022/01/29 07:04:00;;;;;;;0.47;0.47;;;4.10;99.90;;;;;;4441790;32;20085;-69
2022/01/29 07:06:25;;;;;;;0.62;0.62;;;4.20;99.90;;;;;;4441852;32;20061;-69
2022/01/29 07:08:51;;;;;;;0.55;0.55;;;4.10;99.90;;;;;;4440774;32;20069;-69
2022/01/29 07:11:20;;;;;;;0.70;0.70;;;4.20;99.90;;;;;;4440227;32;20097;-69
2022/01/29 07:13:46;;;;;;;0.60;0.60;;;4.20;99.90;;;;;;4441883;32;20573;-69
2022/01/29 07:16:11;;;;;;;12.95;1.00;;;4.10;99.90;;;;;;4440732;32;20069;-69
2022/01/29 07:18:37;;;;;;;0.60;0.60;;;4.20;99.90;;;;;;4437697;32;20085;-70
2022/01/29 07:21:02;;;;;;;1.37;1.27;;;4.20;99.90;;;;;;4440475;32;20520;-69
2022/01/29 07:23:28;;;;;;;0.30;0.30;;;4.20;99.90;;;;;;4441167;32;20081;-69
2022/01/29 07:25:53;;;;;;;0.75;0.75;;;4.20;99.90;;;;;;4440365;32;20069;-69
2022/01/29 07:28:19;;;;;;;1.25;0.75;;;4.20;99.90;;;;;;4441416;32;20081;-69
2022/01/29 07:30:45;;;;;;;0.40;0.40;;;4.10;99.90;;;;;;4439558;32;20642;-69
2022/01/29 07:33:11;;;;;;;0.52;0.52;;;4.20;99.90;;;;;;4440973;32;20089;-69
2022/01/29 07:35:36;;;;;;;0.68;0.68;;;4.20;99.90;;;;;;4440998;32;20070;-70
2022/01/29 07:38:02;;;;;;;5.22;2.05;;;4.20;99.90;;;;;;4441557;32;20070;-69
2022/01/29 07:40:27;;;;;;;6.90;1.92;;;4.20;99.90;;;;;;4441899;32;20084;-69
2022/01/29 07:42:53;;;;;;;0.75;0.75;;;4.20;99.90;;;;;;4444505;32;20077;-70
2022/01/29 07:45:19;;;;;;;2.62;1.05;;;4.30;99.90;;;;;;4443134;32;20135;-70
2022/01/29 07:47:44;;;;;;;0.65;0.62;;;4.20;99.90;;;;;;4443096;32;21283;-69
2022/01/29 07:50:10;;;;;;;0.40;0.40;;;4.30;99.90;;;;;;4443185;32;20119;-69
2022/01/29 07:52:35;;;;;;;0.82;0.82;;;4.30;99.90;;;;;;4442038;32;20089;-70
2022/01/29 07:55:01;;;;;;;2.62;0.70;;;4.40;99.90;;;;;;4443517;32;20069;-69
2022/01/29 07:57:27;;;;;;;0.80;0.80;;;4.30;99.90;;;;;;4442443;32;20078;-69
2022/01/29 07:59:53;;;;;;;0.40;0.40;;;4.30;99.90;;;;;;4443100;32;20065;-69
2022/01/29 08:02:19;;;;;;;0.30;0.30;;;4.30;99.90;;;;;;4442887;32;20520;-70
2022/01/29 08:04:44;;;;;;;0.50;0.50;;;4.30;99.90;;;;;;4442914;32;20077;-69
2022/01/29 08:07:10;;;;;;;0.40;0.40;;;4.40;99.90;;;;;;4443717;32;20465;-69
2022/01/29 08:09:35;;;;;;;0.80;0.77;;;4.40;99.90;;;;;;4444253;32;20127;-69
2022/01/29 08:12:01;;;;;;;0.75;0.70;;;4.40;99.90;;;;;;4443728;32;20085;-69
2022/01/29 08:14:26;;;;;;;0.40;0.40;;;4.40;99.90;;;;;;4443588;32;20119;-69
2022/01/29 08:16:51;;;;;;;0.55;0.50;;;4.40;99.90;;;;;;4441371;32;20077;-69
2022/01/29 08:19:17;;;;;;;1.00;0.90;;;4.50;99.90;;;;;;4442357;32;20535;-70
2022/01/29 08:21:42;;;;;;;0.50;0.47;;;4.50;99.90;;;;;;4443198;32;20076;-69
2022/01/29 08:24:08;;;;;;;0.88;0.88;;;4.50;99.90;;;;;;4444361;32;20506;-70
2022/01/29 08:26:34;;;;;;;1.12;1.00;;;4.60;99.90;;;;;;4441024;32;20065;-69
2022/01/29 08:28:59;;;;;;;0.70;0.70;;;4.60;99.90;;;;;;4442670;32;20138;-70
2022/01/29 08:31:25;;;;;;;0.62;0.43;;;4.50;99.90;;;;;;4443598;32;20125;-70
2022/01/29 08:33:50;;;;;;;2.87;1.70;;;4.60;99.90;;;;;;4442590;32;20502;-69
2022/01/29 08:36:16;;;;;;;0.30;0.30;;;4.60;99.90;;;;;;4441632;32;20081;-69
2022/01/29 08:38:41;;;;;;;0.70;0.70;;;4.60;99.90;;;;;;4440383;32;20061;-69
2022/01/29 08:41:07;;;;;;;0.80;0.68;;;4.60;99.90;;;;;;4440827;32;20064;-71
2022/01/29 08:43:33;;;;;;;0.40;0.40;;;4.70;99.90;;;;;;4442074;32;20069;-70
2022/01/29 08:45:59;;;;;;;0.40;0.40;;;4.60;99.90;;;;;;4443775;32;20069;-69
2022/01/29 08:48:24;;;;;;;0.30;0.30;;;4.70;99.90;;;;;;4440386;32;20520;-70
2022/01/29 08:50:50;;;;;;;11.43;1.17;;;4.70;99.90;;;;;;4441237;32;20085;-70
2022/01/29 08:53:17;;;;;;;0.77;0.77;;;4.70;99.90;;;;;;4441042;32;20065;-70
2022/01/29 08:55:43;;;;;;;5.57;1.00;;;4.80;99.90;;;;;;4442655;32;21203;-70
2022/01/29 08:58:09;;;;;;;0.70;0.70;;;4.80;99.90;;;;;;4443204;32;20074;-69
2022/01/29 09:00:37;;;;;;;0.50;0.50;;;4.80;99.90;;;;;;4440269;32;20072;-69
2022/01/29 09:03:04;;;;;;;0.55;0.55;;;4.80;99.90;;;;;;4441938;32;20539;-70
2022/01/29 09:05:29;;;;;;;0.73;0.73;;;4.80;99.90;;;;;;4442319;32;20180;-70
2022/01/29 09:07:55;;;;;;;0.30;0.30;;;4.90;99.90;;;;;;4441195;32;20119;-70
2022/01/29 09:10:20;;;;;;;0.50;0.50;;;4.80;99.90;;;;;;4442942;32;20567;-70
2022/01/29 09:12:46;;;;;;;0.52;0.52;;;4.80;99.90;;;;;;4442098;32;20076;-70
2022/01/29 09:15:11;;;;;;;0.50;0.50;;;4.90;99.90;;;;;;4440861;32;21351;-70
2022/01/29 09:17:39;;;;;;;0.40;0.40;;;4.90;99.90;;;;;;4443008;32;20097;-70
2022/01/29 09:20:07;;;;;;;0.50;0.50;;;4.90;99.90;;;;;;4443337;32;20064;-70
2022/01/29 09:22:32;;;;;;;0.35;0.35;;;5.00;99.90;;;;;;4441857;32;20128;-70
2022/01/29 09:24:58;;;;;;;0.70;0.70;;;5.00;99.90;;;;;;4442504;32;20089;-70
2022/01/29 09:27:23;;;;;;;0.45;0.45;;;5.00;99.90;;;;;;4441868;32;20517;-70
2022/01/29 09:29:49;;;;;;;0.73;0.73;;;5.10;99.90;;;;;;4441600;32;20089;-69
2022/01/29 09:32:14;;;;;;;0.30;0.30;;;5.10;99.90;;;;;;4443558;32;20073;-69
2022/01/29 09:34:39;;;;;;;0.40;0.40;;;5.20;99.90;;;;;;4442777;32;20136;-69
2022/01/29 09:37:05;;;;;;;0.30;0.30;;;5.20;99.90;;;;;;4442177;32;20069;-69
2022/01/29 09:39:30;;;;;;;2.17;1.20;;;5.20;99.90;;;;;;4443145;32;20112;-69
2022/01/29 09:41:56;;;;;;;0.47;0.47;;;5.20;99.90;;;;;;4443751;32;20571;-69
2022/01/29 09:44:22;;;;;;;2.25;0.65;;;5.20;99.90;;;;;;4441759;32;20076;-70
2022/01/29 09:46:51;;;;;;;0.50;0.50;;;5.30;99.90;;;;;;4443007;32;20089;-70
2022/01/29 09:49:17;;;;;;;1.30;1.20;;;5.30;99.90;;;;;;4441238;32;20215;-70
2022/01/29 09:51:43;;;;;;;0.65;0.65;;;5.40;99.90;;;;;;4440682;32;20124;-70
2022/01/29 09:54:09;;;;;;;0.52;0.52;;;5.40;99.90;;;;;;4442075;32;20064;-70
2022/01/29 09:56:34;;;;;;;0.88;0.70;;;5.40;99.90;;;;;;4442090;32;20089;-69
2022/01/29 09:59:00;;;;;;;0.95;0.80;;;5.50;99.90;;;;;;4440855;32;20065;-70
2022/01/29 10:01:25;;;;;;;0.52;0.52;;;5.50;99.90;;;;;;4441944;32;20073;-69
2022/01/29 10:04:01;;;;;;;1.48;0.88;;;5.50;99.90;;;;;;4442750;32;20081;-69
2022/01/29 10:06:27;;;;;;;2.47;0.80;;;5.60;99.90;;;;;;4441456;32;20092;-69
2022/01/29 10:08:52;;;;;;;4.47;1.02;;;5.60;99.90;;;;;;4442076;32;20965;-70
2022/01/29 10:11:20;;;;;;;1.37;0.90;;;5.60;99.90;;;;;;4442867;32;20524;-70
2022/01/29 10:13:46;;;;;;;2.45;1.08;;;5.70;99.90;;;;;;4441744;32;20089;-69
2022/01/29 10:16:15;;;;;;;0.60;0.60;;;5.70;99.90;;;;;;4442861;32;20061;-71
2022/01/29 10:18:46;;;;;;;0.60;0.60;;;5.70;99.90;;;;;;4441836;32;20061;-69
2022/01/29 10:21:18;;;;;;;4.35;1.20;;;5.80;99.90;;;;;;4439349;32;20120;-69
2022/01/29 10:23:45;;;;;;;0.62;0.62;;;5.80;99.90;;;;;;4440303;32;20073;-70
2022/01/29 10:26:25;;;;;;;0.57;0.57;;;5.90;99.90;;;;;;4438728;32;20068;-70
2022/01/29 10:28:54;;;;;;;2.80;0.60;;;5.90;99.90;;;;;;4438724;32;20139;-69
2022/01/29 10:31:19;;;;;;;0.40;0.40;;;6.00;99.90;;;;;;4441503;32;20175;-70
2022/01/29 10:33:45;;;;;;;1.08;0.77;;;6.00;99.90;;;;;;4440691;32;20474;-70
2022/01/29 10:36:15;;;;;;;7.97;0.70;;;6.00;99.90;;;;;;4441375;32;20457;-70
2022/01/29 10:38:42;;;;;;;0.63;0.63;;;6.00;99.90;;;;;;4442405;32;20099;-70
2022/01/29 10:41:26;;;;;;;1.27;0.60;;;6.10;99.90;;;;;;4442470;32;20171;-70
2022/01/29 10:46:41;;;;;;;0.47;0.47;;;6.10;99.90;;;;;;4440920;32;20575;-71
2022/01/29 10:49:07;;;;;;;1.15;0.60;;;6.20;99.90;;;;;;4440829;32;20090;-70
2022/01/29 10:51:34;;;;;;;0.50;0.50;;;6.20;99.90;;;;;;4440696;32;20231;-71
2022/01/29 10:54:19;;;;;;;1.55;1.15;;;6.30;99.90;;;;;;4440120;32;20627;-70
2022/01/29 10:57:06;;;;;;;0.75;0.65;;;6.30;99.90;;;;;;4438795;32;20092;-69
2022/01/29 10:59:34;;;;;;;1.90;1.55;;;6.40;99.90;;;;;;4439303;32;20105;-69
2022/01/29 11:02:02;;;;;;;0.62;0.62;;;6.40;99.90;;;;;;4441696;32;20093;-70
2022/01/29 11:04:30;;;;;;;1.58;1.27;;;6.40;99.90;;;;;;4440797;32;20100;-71
2022/01/29 11:07:00;;;;;;;0.70;0.70;;;6.50;99.90;;;;;;4440001;32;20318;-70
2022/01/29 11:09:27;;;;;;;0.73;0.73;;;6.50;99.90;;;;;;4440479;32;20093;-70
2022/01/29 11:11:54;;;;;;;0.50;0.50;;;6.60;99.90;;;;;;4441529;32;20119;-70
2022/01/29 11:14:20;;;;;;;0.85;0.75;;;6.70;99.90;;;;;;4443377;32;20379;-69
2022/01/29 11:16:47;;;;;;;0.40;0.40;;;6.70;99.90;;;;;;4443321;32;20816;-70
2022/01/29 11:19:15;;;;;;;0.98;0.95;;;6.80;99.90;;;;;;4443696;32;20089;-71
2022/01/29 11:21:42;;;;;;;0.68;0.68;;;6.80;99.90;;;;;;4443715;32;20081;-70
2022/01/29 11:24:09;;;;;;;0.37;0.37;;;6.90;99.90;;;;;;4443154;32;20065;-71
2022/01/29 11:26:36;;;;;;;1.70;0.77;;;6.90;99.90;;;;;;4442196;32;20080;-70
2022/01/29 11:29:37;;;;;;;3.47;0.45;;;6.90;99.90;;;;;;4444020;32;20076;-70
2022/01/29 11:32:25;;;;;;;1.00;1.00;;;7.00;99.90;;;;;;4441230;32;20073;-71
2022/01/29 11:35:08;;;;;;;1.27;0.70;;;7.00;99.90;;;;;;4442215;32;20065;-70
2022/01/29 11:37:38;;;;;;;0.43;0.43;;;7.10;99.90;;;;;;4441057;32;20080;-71
2022/01/29 11:40:11;;;;;;;0.30;0.30;;;7.10;99.90;;;;;;4441550;32;20131;-70
2022/01/29 11:42:37;;;;;;;0.43;0.43;;;7.10;99.90;;;;;;4442986;32;20069;-70
2022/01/29 11:45:41;;;;;;;0.62;0.62;;;7.20;99.90;;;;;;4443755;32;20132;-70
2022/01/29 11:48:28;;;;;;;0.30;0.30;;;7.20;99.90;;;;;;4442740;32;20057;-70
2022/01/29 11:50:59;;;;;;;0.50;0.50;;;7.20;99.90;;;;;;4443781;32;20124;-71
2022/01/29 11:53:45;;;;;;;0.50;0.50;;;7.30;99.90;;;;;;4443092;32;20061;-70
2022/01/29 11:56:32;;;;;;;0.95;0.95;;;7.30;99.90;;;;;;4442358;32;20107;-70
2022/01/29 11:59:18;;;;;;;0.62;0.62;;;7.30;99.90;;;;;;4442527;32;20080;-70
2022/01/29 12:01:45;;;;;;;0.30;0.30;;;7.40;99.90;;;;;;4443679;32;20086;-73
2022/01/29 12:04:11;;;;;;;0.40;0.40;;;7.40;99.90;;;;;;4443488;32;20085;-70
2022/01/29 12:06:42;;;;;;;0.50;0.50;;;7.40;99.90;;;;;;4442664;32;20080;-71
2022/01/29 12:09:25;;;;;;;0.62;0.62;;;7.40;99.90;;;;;;4440703;32;20133;-72
2022/01/29 12:12:13;;;;;;;0.65;0.65;;;7.40;99.90;;;;;;4442861;32;20073;-73
2022/01/29 12:14:38;;;;;;;1.35;0.88;;;7.50;99.90;;;;;;4442359;32;20080;-72
2022/01/29 12:17:05;;;;;;;0.88;0.68;;;7.50;99.90;;;;;;4442389;32;20195;-72
2022/01/29 12:19:46;;;;;;;0.35;0.35;;;7.50;99.90;;;;;;4443119;32;20597;-72
2022/01/29 12:22:14;;;;;;;;;;;7.50;99.90;;;;;;4440584;32;20608;-72
2022/01/29 12:24:46;;;;;;;0.47;0.47;;;7.50;99.90;;;;;;4443037;32;19963;-72
2022/01/29 12:27:12;;;;;;;0.40;0.40;;;7.60;99.90;;;;;;4440505;32;20094;-72
2022/01/29 12:29:37;;;;;;;6.97;0.88;;;7.60;99.90;;;;;;4443747;32;20124;-72
2022/01/29 12:32:04;;;;;;;0.50;0.50;;;7.60;99.90;;;;;;4441791;32;20150;-72
2022/01/29 12:34:31;;;;;;;0.75;0.68;;;7.60;99.90;;;;;;4444763;32;20105;-73
2022/01/29 12:37:14;;;;;;;0.40;0.40;;;7.60;99.90;;;;;;4441564;32;20521;-72
2022/01/29 12:39:43;;;;;;;0.40;0.40;;;7.60;99.90;;;;;;4440050;32;20442;-72
2022/01/29 12:44:52;;;;;;;3.17;0.50;;;7.80;99.90;;;;;;4441821;32;20145;-72
2022/01/29 12:47:28;;;;;;;0.30;0.30;;;7.80;99.90;;;;;;4442675;32;20061;-72
2022/01/29 12:49:54;;;;;;;2.08;0.95;;;7.80;99.90;;;;;;4437929;32;20057;-72
2022/01/29 12:52:20;;;;;;;2.22;0.88;;;7.80;99.90;;;;;;4440856;32;20175;-72
2022/01/29 12:54:55;;;;;;;0.43;0.43;;;7.90;99.90;;;;;;4443973;32;20053;-73
2022/01/29 12:57:21;;;;;;;0.30;0.30;;;7.90;99.90;;;;;;4440938;32;20707;-73
2022/01/29 12:59:47;;;;;;;0.30;0.30;;;8.00;99.90;;;;;;4441666;32;20123;-73
2022/01/29 13:02:13;;;;;;;0.57;0.57;;;8.10;99.90;;;;;;4440941;32;20130;-73
2022/01/29 13:04:39;;;;;;;0.40;0.40;;;8.00;99.90;;;;;;4441670;32;20167;-73
2022/01/29 13:07:07;;;;;;;0.50;0.50;;;8.10;99.90;;;;;;4439792;32;20054;-73
2022/01/29 13:09:35;;;;;;;4.03;0.60;;;8.10;99.90;;;;;;4441278;32;20131;-73